createdAt,value
2023-05-20T00:00:01.829Z,100.00
2023-05-20T00:02:30.582Z,100.00
2023-05-20T00:04:59.170Z,100.00
2023-05-20T00:07:27.505Z,100.00
2023-05-20T00:09:55.902Z,100.00
2023-05-20T00:12:24.101Z,100.00
2023-05-20T00:14:55.308Z,100.00
2023-05-20T00:17:25.859Z,100.00
2023-05-20T00:19:54.209Z,100.00
2023-05-20T00:22:23.221Z,100.00
2023-05-20T00:24:51.428Z,100.00
2023-05-20T00:27:19.662Z,100.00
2023-05-20T00:29:48.119Z,100.00
2023-05-20T00:32:17.710Z,100.00
2023-05-20T00:34:45.913Z,100.00
2023-05-20T00:37:14.127Z,100.00
2023-05-20T00:39:42.291Z,100.00
2023-05-20T00:42:10.472Z,100.00
2023-05-20T00:44:38.656Z,100.00
2023-05-20T00:47:06.889Z,100.00
2023-05-20T00:49:36.427Z,100.00
2023-05-20T00:52:04.722Z,100.00
2023-05-20T00:54:33.019Z,100.00
2023-05-20T00:57:03.087Z,100.00
2023-05-20T00:59:31.451Z,100.00
2023-05-20T01:01:59.765Z,100.00
2023-05-20T01:04:28.352Z,100.00
2023-05-20T01:06:58.102Z,100.00
2023-05-20T01:09:26.750Z,100.00
2023-05-20T01:12:02.516Z,100.00
2023-05-20T01:14:34.604Z,100.00
2023-05-20T01:17:09.399Z,100.00
2023-05-20T01:19:40.171Z,100.00
2023-05-20T01:22:13.121Z,100.00
2023-05-20T01:24:44.140Z,100.00
2023-05-20T01:27:13.517Z,100.00
2023-05-20T01:29:46.001Z,100.00
2023-05-20T01:32:18.056Z,100.00
2023-05-20T01:34:46.634Z,100.00
2023-05-20T01:37:16.649Z,100.00
2023-05-20T01:39:48.005Z,100.00
2023-05-20T01:42:16.853Z,100.00
2023-05-20T01:44:45.113Z,100.00
2023-05-20T01:47:13.306Z,100.00
2023-05-20T01:49:43.251Z,100.00
2023-05-20T01:52:12.721Z,100.00
2023-05-20T01:54:40.870Z,100.00
2023-05-20T01:57:10.576Z,100.00
2023-05-20T01:59:39.694Z,100.00
2023-05-20T02:02:08.019Z,100.00
2023-05-20T02:04:36.971Z,100.00
2023-05-20T02:07:05.610Z,100.00
2023-05-20T02:09:34.999Z,100.00
2023-05-20T02:12:03.165Z,100.00
2023-05-20T02:14:32.716Z,100.00
2023-05-20T02:17:00.912Z,100.00
2023-05-20T02:19:29.335Z,100.00
2023-05-20T02:21:58.079Z,100.00
2023-05-20T02:24:26.332Z,100.00
2023-05-20T02:26:57.442Z,100.00
2023-05-20T02:29:25.696Z,100.00
2023-05-20T02:31:55.294Z,100.00
2023-05-20T02:34:23.518Z,100.00
2023-05-20T02:36:51.891Z,100.00
2023-05-20T02:39:20.720Z,100.00
2023-05-20T02:41:48.918Z,100.00
2023-05-20T02:44:17.195Z,100.00
2023-05-20T02:46:45.407Z,100.00
2023-05-20T02:49:15.044Z,100.00
2023-05-20T02:51:43.511Z,100.00
2023-05-20T02:54:12.556Z,100.00
2023-05-20T02:56:40.796Z,100.00
2023-05-20T02:59:09.196Z,100.00
2023-05-20T03:01:37.439Z,100.00
2023-05-20T03:04:05.661Z,100.00
2023-05-20T03:06:35.280Z,100.00
2023-05-20T03:09:03.472Z,100.00
2023-05-20T03:11:31.697Z,100.00
2023-05-20T03:13:59.830Z,100.00
2023-05-20T03:16:28.364Z,100.00
2023-05-20T03:18:56.823Z,100.00
2023-05-20T03:21:25.311Z,100.00
2023-05-20T03:23:55.099Z,100.00
2023-05-20T03:26:23.304Z,100.00
2023-05-20T03:28:52.357Z,100.00
2023-05-20T03:31:21.162Z,100.00
2023-05-20T03:33:49.380Z,100.00
2023-05-20T03:36:17.947Z,100.00
2023-05-20T03:38:46.098Z,100.00
2023-05-20T03:41:15.784Z,100.00
2023-05-20T03:43:43.906Z,100.00
2023-05-20T03:46:12.432Z,100.00
2023-05-20T03:48:41.173Z,100.00
2023-05-20T03:51:09.407Z,100.00
2023-05-20T03:53:37.617Z,100.00
2023-05-20T03:56:06.374Z,100.00
2023-05-20T03:58:38.634Z,100.00
2023-05-20T04:01:07.633Z,100.00
2023-05-20T04:03:36.018Z,100.00
2023-05-20T04:06:05.207Z,100.00
2023-05-20T04:08:34.043Z,100.00
2023-05-20T04:11:03.418Z,100.00
2023-05-20T04:13:31.580Z,100.00
2023-05-20T04:16:02.141Z,100.00
2023-05-20T04:18:31.900Z,100.00
2023-05-20T04:21:01.754Z,100.00
2023-05-20T04:23:30.256Z,100.00
2023-05-20T04:26:02.656Z,100.00
2023-05-20T04:28:32.910Z,100.00
2023-05-20T04:31:04.587Z,100.00
2023-05-20T04:33:37.931Z,100.00
2023-05-20T04:36:08.751Z,100.00
2023-05-20T04:38:37.451Z,100.00
2023-05-20T04:41:07.176Z,100.00
2023-05-20T04:43:35.584Z,100.00
2023-05-20T04:46:06.244Z,100.00
2023-05-20T04:48:35.256Z,100.00
2023-05-20T04:51:03.472Z,100.00
2023-05-20T04:53:34.005Z,100.00
2023-05-20T04:56:03.606Z,100.00
2023-05-20T04:58:33.570Z,100.00
2023-05-20T05:01:02.771Z,100.00
2023-05-20T05:03:34.458Z,100.00
2023-05-20T05:06:04.169Z,100.00
2023-05-20T05:08:32.377Z,100.00
2023-05-20T05:11:00.942Z,100.00
2023-05-20T05:13:29.214Z,100.00
2023-05-20T05:16:00.907Z,100.00
2023-05-20T05:18:32.576Z,100.00
2023-05-20T05:21:02.111Z,100.00
2023-05-20T05:23:30.869Z,100.00
2023-05-20T05:25:59.203Z,100.00
2023-05-20T05:28:27.828Z,100.00
2023-05-20T05:30:56.717Z,100.00
2023-05-20T05:33:25.031Z,100.00
2023-05-20T05:35:56.840Z,100.00
2023-05-20T05:38:25.043Z,100.00
2023-05-20T05:40:53.371Z,100.00
2023-05-20T05:43:22.649Z,100.00
2023-05-20T05:45:52.278Z,100.00
2023-05-20T05:48:20.672Z,100.00
2023-05-20T05:50:49.179Z,100.00
2023-05-20T05:53:20.312Z,100.00
2023-05-20T05:55:50.248Z,100.00
2023-05-20T05:58:19.303Z,100.00
2023-05-20T06:00:47.555Z,100.00
2023-05-20T06:03:16.134Z,100.00
2023-05-20T06:05:46.548Z,100.00
2023-05-20T06:08:14.761Z,100.00
2023-05-20T06:10:48.988Z,100.00
2023-05-20T06:13:17.902Z,100.00
2023-05-20T06:15:46.502Z,100.00
2023-05-20T06:18:14.894Z,100.00
2023-05-20T06:20:43.546Z,100.00
2023-05-20T06:23:12.205Z,100.00
2023-05-20T06:25:53.112Z,100.00
2023-05-20T06:28:22.190Z,100.00
2023-05-20T06:30:50.564Z,100.00
2023-05-20T06:33:20.349Z,100.00
2023-05-20T06:35:48.795Z,100.00
2023-05-20T06:38:16.982Z,100.00
2023-05-20T06:40:45.342Z,100.00
2023-05-20T06:43:15.010Z,100.00
2023-05-20T06:46:03.714Z,100.00
2023-05-20T06:48:46.726Z,100.00
2023-05-20T06:51:15.156Z,100.00
2023-05-20T06:53:46.601Z,100.00
2023-05-20T06:56:15.746Z,100.00
2023-05-20T06:58:46.230Z,100.00
2023-05-20T07:01:17.810Z,100.00
2023-05-20T07:03:47.184Z,100.00
2023-05-20T07:06:15.789Z,100.00
2023-05-20T07:08:44.189Z,100.00
2023-05-20T07:11:12.937Z,100.00
2023-05-20T07:13:41.282Z,100.00
2023-05-20T07:16:11.004Z,99.02
2023-05-20T07:18:42.166Z,100.00
2023-05-20T07:21:10.400Z,99.74
2023-05-20T07:23:52.321Z,100.00
2023-05-20T07:26:20.465Z,98.08
2023-05-20T07:28:48.696Z,99.08
2023-05-20T07:31:18.772Z,97.72
2023-05-20T07:33:47.029Z,95.66
2023-05-20T07:36:15.201Z,93.66
2023-05-20T07:39:00.594Z,96.02
2023-05-20T07:41:34.680Z,93.52
2023-05-20T07:44:03.855Z,93.15
2023-05-20T07:46:34.424Z,93.14
2023-05-20T07:49:02.987Z,90.51
2023-05-20T07:51:31.358Z,92.99
2023-05-20T07:54:00.229Z,94.33
2023-05-20T07:56:28.510Z,87.49
2023-05-20T07:58:58.787Z,86.71
2023-05-20T08:01:30.905Z,86.64
2023-05-20T08:04:01.281Z,89.09
2023-05-20T08:06:30.190Z,88.02
2023-05-20T08:08:59.536Z,89.05
2023-05-20T08:11:32.643Z,90.76
2023-05-20T08:14:02.147Z,88.96
2023-05-20T08:16:34.582Z,91.61
2023-05-20T08:19:04.732Z,89.37
2023-05-20T08:21:33.373Z,86.74
2023-05-20T08:24:01.794Z,83.08
2023-05-20T08:26:30.449Z,82.82
2023-05-20T08:28:58.712Z,76.79
2023-05-20T08:31:27.125Z,75.37
2023-05-20T08:33:55.510Z,76.68
2023-05-20T08:36:25.899Z,78.22
2023-05-20T08:38:54.074Z,76.51
2023-05-20T08:41:22.824Z,76.32
2023-05-20T08:43:51.944Z,73.77
2023-05-20T08:46:21.476Z,74.59
2023-05-20T08:48:50.427Z,73.50
2023-05-20T08:51:23.765Z,71.89
2023-05-20T08:53:53.649Z,71.72
2023-05-20T08:56:22.199Z,70.45
2023-05-20T08:58:50.597Z,71.73
2023-05-20T09:01:19.047Z,71.06
2023-05-20T09:03:47.591Z,70.82
2023-05-20T09:06:20.176Z,68.14
2023-05-20T09:08:51.058Z,67.16
2023-05-20T09:11:21.828Z,64.56
2023-05-20T09:13:51.512Z,65.13
2023-05-20T09:16:19.982Z,64.45
2023-05-20T09:18:48.840Z,63.40
2023-05-20T09:21:17.129Z,61.66
2023-05-20T09:23:49.361Z,61.00
2023-05-20T09:26:22.235Z,58.98
2023-05-20T09:28:50.464Z,58.48
2023-05-20T09:31:18.664Z,58.61
2023-05-20T09:33:46.994Z,57.01
2023-05-20T09:36:16.646Z,56.06
2023-05-20T09:38:45.911Z,56.63
2023-05-20T09:41:15.448Z,56.42
2023-05-20T09:43:46.242Z,54.82
2023-05-20T09:46:15.089Z,57.21
2023-05-20T09:48:43.509Z,52.49
2023-05-20T09:51:13.403Z,50.66
2023-05-20T09:53:42.022Z,49.66
2023-05-20T09:56:10.306Z,49.52
2023-05-20T09:58:39.892Z,49.66
2023-05-20T10:01:09.627Z,50.79
2023-05-20T10:03:38.041Z,50.22
2023-05-20T10:06:27.983Z,49.74
2023-05-20T10:09:14.739Z,49.36
2023-05-20T10:11:50.325Z,50.33
2023-05-20T10:14:30.728Z,50.11
2023-05-20T10:17:10.249Z,46.96
2023-05-20T10:19:38.651Z,46.35
2023-05-20T10:22:08.620Z,43.77
2023-05-20T10:24:38.225Z,43.60
2023-05-20T10:27:09.724Z,43.03
2023-05-20T10:29:45.868Z,43.60
2023-05-20T10:32:25.486Z,42.55
2023-05-20T10:34:55.634Z,41.90
2023-05-20T10:37:29.073Z,42.87
2023-05-20T10:40:11.183Z,45.16
2023-05-20T10:42:39.645Z,44.10
2023-05-20T10:45:09.292Z,43.62
2023-05-20T10:47:43.747Z,44.10
2023-05-20T10:50:30.216Z,44.71
2023-05-20T10:53:06.936Z,42.72
2023-05-20T10:55:38.928Z,41.48
2023-05-20T10:58:07.714Z,41.49
2023-05-20T11:00:37.814Z,41.34
2023-05-20T11:03:08.231Z,41.14
2023-05-20T11:05:36.888Z,42.53
2023-05-20T11:08:13.633Z,43.17
2023-05-20T11:10:48.954Z,42.43
2023-05-20T11:13:17.775Z,42.22
2023-05-20T11:15:46.204Z,41.28
2023-05-20T11:18:17.872Z,41.01
2023-05-20T11:20:47.896Z,41.92
2023-05-20T11:23:16.819Z,40.90
2023-05-20T11:25:44.964Z,42.32
2023-05-20T11:28:14.959Z,41.58
2023-05-20T11:30:43.708Z,41.51
2023-05-20T11:33:13.948Z,41.67
2023-05-20T11:35:47.976Z,41.61
2023-05-20T11:38:16.828Z,41.06
2023-05-20T11:40:50.969Z,40.62
2023-05-20T11:43:20.438Z,41.18
2023-05-20T11:45:49.767Z,41.27
2023-05-20T11:48:17.996Z,41.09
2023-05-20T11:50:49.031Z,40.56
2023-05-20T11:53:18.950Z,39.80
2023-05-20T11:55:48.046Z,39.95
2023-05-20T11:58:20.522Z,39.97
2023-05-20T12:00:53.191Z,39.50
2023-05-20T12:03:27.919Z,39.74
2023-05-20T12:05:57.526Z,39.22
2023-05-20T12:08:25.874Z,39.87
2023-05-20T12:10:54.989Z,39.75
2023-05-20T12:13:23.901Z,40.42
2023-05-20T12:15:52.124Z,40.68
2023-05-20T12:18:20.304Z,41.42
2023-05-20T12:20:48.957Z,42.01
2023-05-20T12:23:18.755Z,41.13
2023-05-20T12:25:49.883Z,41.28
2023-05-20T12:28:18.397Z,41.59
2023-05-20T12:30:46.596Z,41.59
2023-05-20T12:33:14.769Z,41.26
2023-05-20T12:35:44.569Z,41.06
2023-05-20T12:38:12.744Z,41.72
2023-05-20T12:40:42.277Z,40.44
2023-05-20T12:43:10.532Z,39.69
2023-05-20T12:45:38.809Z,40.57
2023-05-20T12:48:08.229Z,41.03
2023-05-20T12:50:36.678Z,41.45
2023-05-20T12:53:05.545Z,41.48
2023-05-20T12:55:36.202Z,42.14
2023-05-20T12:58:05.795Z,40.87
2023-05-20T13:00:34.177Z,41.22
2023-05-20T13:03:03.724Z,41.29
2023-05-20T13:05:32.114Z,42.41
2023-05-20T13:08:00.413Z,40.62
2023-05-20T13:10:29.181Z,39.90
2023-05-20T13:12:58.006Z,38.80
2023-05-20T13:15:28.829Z,39.28
2023-05-20T13:17:57.309Z,38.29
2023-05-20T13:20:25.496Z,38.60
2023-05-20T13:22:53.850Z,38.33
2023-05-20T13:25:22.005Z,38.75
2023-05-20T13:27:50.153Z,37.89
2023-05-20T13:30:18.445Z,38.33
2023-05-20T13:32:48.083Z,38.42
2023-05-20T13:35:16.968Z,37.65
2023-05-20T13:37:45.545Z,38.11
2023-05-20T13:40:14.400Z,39.10
2023-05-20T13:42:42.708Z,39.75
2023-05-20T13:45:11.799Z,40.86
2023-05-20T13:47:39.987Z,40.12
2023-05-20T13:50:11.467Z,40.43
2023-05-20T13:52:39.712Z,41.34
2023-05-20T13:55:09.328Z,43.21
2023-05-20T13:57:37.909Z,44.30
2023-05-20T14:00:07.483Z,44.79
2023-05-20T14:02:37.134Z,45.24
2023-05-20T14:05:06.124Z,43.25
2023-05-20T14:07:35.829Z,43.35
2023-05-20T14:10:04.113Z,43.14
2023-05-20T14:12:32.962Z,42.03
2023-05-20T14:15:01.232Z,40.74
2023-05-20T14:17:29.871Z,41.33
2023-05-20T14:19:58.321Z,40.68
2023-05-20T14:22:26.583Z,39.59
2023-05-20T14:24:56.449Z,39.23
2023-05-20T14:27:24.761Z,38.92
2023-05-20T14:29:52.970Z,37.84
2023-05-20T14:32:21.241Z,38.90
2023-05-20T14:34:49.513Z,39.49
2023-05-20T14:37:17.746Z,39.91
2023-05-20T14:39:46.058Z,39.94
2023-05-20T14:42:15.712Z,40.33
2023-05-20T14:44:43.926Z,41.12
2023-05-20T14:47:12.282Z,42.05
2023-05-20T14:49:42.284Z,42.98
2023-05-20T14:52:10.522Z,43.65
2023-05-20T14:54:43.604Z,44.00
2023-05-20T14:57:11.781Z,44.21
2023-05-20T14:59:41.647Z,44.88
2023-05-20T15:02:09.902Z,44.82
2023-05-20T15:04:38.146Z,44.75
2023-05-20T15:07:06.898Z,44.88
2023-05-20T15:09:35.233Z,45.40
2023-05-20T15:12:03.408Z,45.52
2023-05-20T15:14:31.680Z,45.32
2023-05-20T15:17:01.354Z,45.13
2023-05-20T15:19:29.759Z,45.19
2023-05-20T15:21:58.038Z,44.99
2023-05-20T15:24:26.265Z,45.49
2023-05-20T15:26:55.143Z,44.93
2023-05-20T15:29:23.566Z,44.65
2023-05-20T15:31:51.953Z,45.41
2023-05-20T15:34:21.528Z,45.50
2023-05-20T15:36:49.683Z,44.94
2023-05-20T15:39:18.174Z,44.77
2023-05-20T15:41:50.102Z,44.22
2023-05-20T15:44:18.328Z,44.17
2023-05-20T15:46:47.304Z,44.22
2023-05-20T15:49:15.768Z,45.20
2023-05-20T15:51:55.574Z,44.14
2023-05-20T15:54:30.377Z,44.80
2023-05-20T15:56:59.166Z,44.68
2023-05-20T15:59:27.386Z,45.61
2023-05-20T16:01:55.798Z,45.73
2023-05-20T16:04:24.382Z,45.29
2023-05-20T16:06:56.043Z,46.08
2023-05-20T16:09:25.709Z,47.63
2023-05-20T16:11:53.908Z,47.60
2023-05-20T16:14:22.108Z,47.61
2023-05-20T16:16:50.363Z,48.42
2023-05-20T16:19:18.654Z,49.18
2023-05-20T16:21:46.806Z,51.68
2023-05-20T16:24:16.927Z,53.37
2023-05-20T16:26:45.196Z,56.40
2023-05-20T16:29:16.264Z,59.18
2023-05-20T16:31:46.822Z,63.99
2023-05-20T16:34:16.491Z,63.62
2023-05-20T16:36:46.411Z,64.16
2023-05-20T16:39:16.570Z,63.21
2023-05-20T16:41:44.902Z,62.69
2023-05-20T16:44:13.057Z,62.12
2023-05-20T16:46:41.368Z,62.26
2023-05-20T16:49:09.680Z,64.48
2023-05-20T16:51:38.534Z,66.63
2023-05-20T16:54:06.767Z,66.80
2023-05-20T16:56:37.121Z,66.90
2023-05-20T16:59:06.312Z,65.98
2023-05-20T17:01:34.545Z,67.36
2023-05-20T17:04:03.014Z,69.79
2023-05-20T17:06:34.408Z,69.18
2023-05-20T17:09:04.348Z,66.75
2023-05-20T17:11:32.616Z,74.40
2023-05-20T17:14:03.228Z,80.35
2023-05-20T17:16:31.687Z,82.03
2023-05-20T17:19:00.290Z,81.83
2023-05-20T17:21:28.879Z,82.77
2023-05-20T17:23:57.623Z,85.91
2023-05-20T17:26:26.450Z,86.04
2023-05-20T17:28:55.074Z,87.70
2023-05-20T17:31:24.978Z,84.47
2023-05-20T17:33:53.870Z,82.78
2023-05-20T17:36:23.264Z,80.25
2023-05-20T17:38:52.582Z,79.81
2023-05-20T17:41:22.362Z,77.74
2023-05-20T17:43:51.372Z,77.29
2023-05-20T17:46:20.825Z,77.12
2023-05-20T17:48:51.628Z,76.98
2023-05-20T17:51:21.558Z,77.22
2023-05-20T17:53:50.729Z,76.78
2023-05-20T17:56:19.979Z,77.22
2023-05-20T17:58:49.555Z,74.97
2023-05-20T18:01:19.286Z,72.80
2023-05-20T18:03:48.682Z,75.41
2023-05-20T18:06:20.773Z,76.28
2023-05-20T18:08:49.979Z,79.09
2023-05-20T18:11:19.210Z,81.70
2023-05-20T18:13:48.459Z,82.00
2023-05-20T18:16:17.706Z,82.87
2023-05-20T18:18:47.311Z,85.47
2023-05-20T18:21:16.570Z,85.12
2023-05-20T18:23:47.187Z,83.63
2023-05-20T18:26:16.533Z,94.17
2023-05-20T18:28:45.717Z,100.00
2023-05-20T18:31:14.817Z,100.00
2023-05-20T18:33:43.909Z,100.00
2023-05-20T18:36:13.139Z,100.00
2023-05-20T18:38:42.339Z,100.00
2023-05-20T18:41:12.751Z,100.00
2023-05-20T18:43:41.812Z,100.00
2023-05-20T18:46:11.264Z,100.00
2023-05-20T18:48:40.501Z,100.00
2023-05-20T18:51:09.644Z,100.00
2023-05-20T18:53:38.854Z,100.00
2023-05-20T18:56:09.745Z,100.00
2023-05-20T18:58:40.394Z,100.00
2023-05-20T19:01:09.780Z,100.00
2023-05-20T19:03:39.274Z,100.00
2023-05-20T19:06:08.565Z,100.00
2023-05-20T19:08:37.912Z,100.00
2023-05-20T19:11:07.401Z,100.00
2023-05-20T19:13:36.710Z,100.00
2023-05-20T19:16:07.814Z,100.00
2023-05-20T19:18:37.114Z,100.00
2023-05-20T19:21:09.364Z,100.00
2023-05-20T19:23:38.652Z,100.00
2023-05-20T19:26:09.104Z,100.00
2023-05-20T19:28:38.419Z,100.00
2023-05-20T19:31:09.036Z,100.00
2023-05-20T19:33:38.394Z,100.00
2023-05-20T19:36:07.895Z,100.00
2023-05-20T19:38:37.112Z,100.00
2023-05-20T19:41:06.351Z,100.00
2023-05-20T19:43:35.902Z,100.00
2023-05-20T19:46:07.161Z,100.00
2023-05-20T19:48:37.768Z,100.00
2023-05-20T19:51:08.509Z,100.00
2023-05-20T19:53:38.718Z,100.00
2023-05-20T19:56:09.067Z,100.00
2023-05-20T19:58:38.397Z,100.00
2023-05-20T20:01:07.749Z,100.00
2023-05-20T20:03:38.803Z,100.00
2023-05-20T20:06:08.166Z,100.00
2023-05-20T20:08:38.581Z,100.00
2023-05-20T20:11:08.496Z,100.00
2023-05-20T20:13:37.736Z,100.00
2023-05-20T20:16:07.613Z,100.00
2023-05-20T20:18:38.724Z,100.00
2023-05-20T20:21:10.018Z,100.00
2023-05-20T20:23:39.555Z,100.00
2023-05-20T20:26:10.047Z,100.00
2023-05-20T20:28:39.184Z,100.00
2023-05-20T20:31:08.378Z,100.00
2023-05-20T20:33:38.961Z,100.00
2023-05-20T20:36:09.604Z,100.00
2023-05-20T20:38:39.297Z,100.00
2023-05-20T20:41:10.178Z,100.00
2023-05-20T20:43:39.659Z,100.00
2023-05-20T20:46:09.946Z,100.00
2023-05-20T20:48:41.982Z,100.00
2023-05-20T20:51:10.963Z,100.00
2023-05-20T20:53:41.531Z,100.00
2023-05-20T20:56:10.406Z,100.00
2023-05-20T20:58:39.869Z,100.00
2023-05-20T21:01:10.113Z,100.00
2023-05-20T21:03:40.671Z,100.00
2023-05-20T21:06:09.062Z,100.00
2023-05-20T21:08:37.376Z,100.00
2023-05-20T21:11:06.455Z,100.00
2023-05-20T21:13:34.783Z,100.00
2023-05-20T21:16:03.007Z,100.00
2023-05-20T21:18:31.149Z,100.00
2023-05-20T21:21:00.907Z,100.00
2023-05-20T21:23:29.126Z,100.00
2023-05-20T21:25:57.306Z,100.00
2023-05-20T21:28:25.436Z,100.00
2023-05-20T21:30:53.663Z,100.00
2023-05-20T21:33:21.938Z,100.00
2023-05-20T21:35:50.137Z,100.00
2023-05-20T21:38:19.820Z,100.00
2023-05-20T21:40:47.981Z,100.00
2023-05-20T21:43:16.597Z,100.00
2023-05-20T21:45:45.766Z,100.00
2023-05-20T21:48:14.407Z,100.00
2023-05-20T21:50:43.272Z,100.00
2023-05-20T21:53:11.426Z,100.00
2023-05-20T21:55:41.464Z,100.00
2023-05-20T21:58:09.636Z,100.00
2023-05-20T22:00:37.800Z,100.00
2023-05-20T22:03:06.190Z,100.00
2023-05-20T22:05:35.145Z,100.00
2023-05-20T22:08:03.489Z,100.00
2023-05-20T22:10:33.827Z,100.00
2023-05-20T22:13:03.452Z,100.00
2023-05-20T22:15:31.881Z,100.00
2023-05-20T22:18:00.119Z,100.00
2023-05-20T22:20:28.740Z,100.00
2023-05-20T22:22:57.008Z,100.00
2023-05-20T22:25:25.215Z,100.00
2023-05-20T22:27:53.586Z,100.00
2023-05-20T22:30:23.496Z,100.00
2023-05-20T22:32:51.694Z,100.00
2023-05-20T22:35:19.893Z,100.00
2023-05-20T22:37:48.318Z,100.00
2023-05-20T22:40:16.716Z,100.00
2023-05-20T22:42:44.885Z,100.00
2023-05-20T22:45:13.103Z,100.00
2023-05-20T22:47:42.852Z,100.00
2023-05-20T22:50:13.549Z,100.00
2023-05-20T22:52:41.818Z,100.00
2023-05-20T22:55:11.642Z,100.00
2023-05-20T22:57:39.802Z,100.00
2023-05-20T23:00:10.091Z,100.00
2023-05-20T23:02:41.601Z,100.00
2023-05-20T23:05:12.418Z,100.00
2023-05-20T23:07:40.661Z,100.00
2023-05-20T23:10:09.606Z,100.00
2023-05-20T23:12:37.807Z,100.00
2023-05-20T23:15:06.799Z,100.00
2023-05-20T23:17:35.159Z,100.00
2023-05-20T23:20:05.492Z,100.00
2023-05-20T23:22:35.050Z,100.00
2023-05-20T23:25:03.448Z,100.00
2023-05-20T23:27:31.755Z,100.00
2023-05-20T23:29:59.985Z,100.00
2023-05-20T23:32:28.208Z,100.00
2023-05-20T23:34:56.372Z,100.00
2023-05-20T23:37:24.486Z,100.00
2023-05-20T23:39:54.030Z,100.00
2023-05-20T23:42:22.175Z,100.00
2023-05-20T23:44:50.439Z,100.00
2023-05-20T23:47:18.707Z,100.00
2023-05-20T23:49:49.250Z,100.00
2023-05-20T23:52:17.700Z,100.00
2023-05-20T23:54:45.864Z,100.00
2023-05-20T23:57:16.155Z,100.00
2023-05-20T23:59:44.295Z,100.00
